createdAt,value
2022-09-10T00:01:40.959Z,1.73
2022-09-10T00:04:15.131Z,1.47
2022-09-10T00:06:45.163Z,1.50
2022-09-10T00:09:15.044Z,1.27
2022-09-10T00:11:45.897Z,2.40
2022-09-10T00:14:19.281Z,0.93
2022-09-10T00:16:47.870Z,0.87
2022-09-10T00:19:19.659Z,0.97
2022-09-10T00:21:50.104Z,0.83
2022-09-10T00:24:18.692Z,0.93
2022-09-10T00:26:47.186Z,0.93
2022-09-10T00:29:18.423Z,0.50
2022-09-10T00:31:47.297Z,0.73
2022-09-10T00:34:17.580Z,0.60
2022-09-10T00:36:46.762Z,1.83
2022-09-10T00:39:18.034Z,0.63
2022-09-10T00:41:49.276Z,1.00
2022-09-10T00:45:00.036Z,0.70
2022-09-10T00:47:34.254Z,0.80
2022-09-10T00:50:14.757Z,1.80
2022-09-10T00:52:44.307Z,1.23
2022-09-10T00:55:14.077Z,0.97
2022-09-10T00:57:43.616Z,0.67
2022-09-10T01:00:15.970Z,1.20
2022-09-10T01:02:44.881Z,1.43
2022-09-10T01:05:17.376Z,2.70
2022-09-10T01:07:45.994Z,0.73
2022-09-10T01:10:19.065Z,0.90
2022-09-10T01:13:16.261Z,0.67
2022-09-10T01:15:53.839Z,1.13
2022-09-10T01:18:33.285Z,0.80
2022-09-10T01:21:19.355Z,0.77
2022-09-10T01:24:43.181Z,0.50
2022-09-10T01:27:38.928Z,1.07
2022-09-10T01:30:14.561Z,0.67
2022-09-10T01:33:12.214Z,0.70
2022-09-10T01:35:47.884Z,0.60
2022-09-10T01:38:34.232Z,0.33
2022-09-10T01:41:03.616Z,0.70
2022-09-10T01:43:38.770Z,0.63
2022-09-10T01:46:26.360Z,1.60
2022-09-10T01:49:14.225Z,1.00
2022-09-10T01:52:08.265Z,0.50
2022-09-10T01:54:51.464Z,0.73
2022-09-10T01:57:31.314Z,1.30
2022-09-10T02:00:09.087Z,0.43
2022-09-10T02:02:48.499Z,0.70
2022-09-10T02:05:21.057Z,1.97
2022-09-10T02:08:00.183Z,0.53
2022-09-10T02:10:28.971Z,0.87
2022-09-10T02:12:57.963Z,1.00
2022-09-10T02:15:49.219Z,0.97
2022-09-10T02:18:24.805Z,0.90
2022-09-10T02:20:56.692Z,0.60
2022-09-10T02:23:32.498Z,1.17
2022-09-10T02:26:00.942Z,0.83
2022-09-10T02:28:30.642Z,1.87
2022-09-10T02:31:00.832Z,0.60
2022-09-10T02:33:31.053Z,1.03
2022-09-10T02:36:00.727Z,0.83
2022-09-10T02:38:30.725Z,0.50
2022-09-10T02:40:59.401Z,1.10
2022-09-10T02:43:28.312Z,0.73
2022-09-10T02:46:02.531Z,1.33
2022-09-10T02:48:31.291Z,1.77
2022-09-10T02:51:00.859Z,2.10
2022-09-10T02:53:31.710Z,1.43
2022-09-10T02:56:04.870Z,1.20
2022-09-10T02:58:34.169Z,0.73
2022-09-10T03:01:11.434Z,0.93
2022-09-10T03:03:40.672Z,1.17
2022-09-10T03:06:09.995Z,1.50
2022-09-10T03:08:39.325Z,0.93
2022-09-10T03:11:08.195Z,1.20
2022-09-10T03:13:37.678Z,0.80
2022-09-10T03:16:06.898Z,1.07
2022-09-10T03:18:37.062Z,1.20
2022-09-10T03:21:14.856Z,0.57
2022-09-10T03:23:44.914Z,0.80
2022-09-10T03:26:15.847Z,1.10
2022-09-10T03:28:46.078Z,1.10
2022-09-10T03:31:18.170Z,1.00
2022-09-10T03:33:51.096Z,1.30
2022-09-10T03:36:21.629Z,0.93
2022-09-10T03:38:51.357Z,0.97
2022-09-10T03:41:19.798Z,0.87
2022-09-10T03:43:50.035Z,1.20
2022-09-10T03:46:18.621Z,0.80
2022-09-10T03:48:55.090Z,0.60
2022-09-10T03:51:27.483Z,0.90
2022-09-10T03:53:57.096Z,2.97
2022-09-10T03:56:25.931Z,0.90
2022-09-10T03:58:54.473Z,2.40
2022-09-10T04:01:24.764Z,1.00
2022-09-10T04:03:57.033Z,0.97
2022-09-10T04:06:28.158Z,0.87
2022-09-10T04:08:57.493Z,0.60
2022-09-10T04:11:27.281Z,0.70
2022-09-10T04:13:57.099Z,0.90
2022-09-10T04:16:27.427Z,1.00
2022-09-10T04:18:57.641Z,1.43
2022-09-10T04:21:27.489Z,0.90
2022-09-10T04:23:59.253Z,1.83
2022-09-10T04:26:28.327Z,0.80
2022-09-10T04:28:57.264Z,1.47
2022-09-10T04:31:25.895Z,1.27
2022-09-10T04:34:02.135Z,1.73
2022-09-10T04:36:32.483Z,1.80
2022-09-10T04:39:01.275Z,2.33
2022-09-10T04:41:30.848Z,1.43
2022-09-10T04:44:00.239Z,2.47
2022-09-10T04:46:28.895Z,2.00
2022-09-10T04:49:01.338Z,3.53
2022-09-10T04:51:30.302Z,2.07
2022-09-10T04:53:59.401Z,2.43
2022-09-10T04:56:32.890Z,2.50
2022-09-10T04:59:01.890Z,2.40
2022-09-10T05:01:35.233Z,2.00
2022-09-10T05:04:05.934Z,2.23
2022-09-10T05:06:37.721Z,3.43
2022-09-10T05:09:08.467Z,2.73
2022-09-10T05:11:37.352Z,2.30
2022-09-10T05:14:07.549Z,2.87
2022-09-10T05:16:37.336Z,1.50
2022-09-10T05:19:07.699Z,2.17
2022-09-10T05:21:44.231Z,1.50
2022-09-10T05:24:13.399Z,1.50
2022-09-10T05:26:45.034Z,1.60
2022-09-10T05:29:14.051Z,1.53
2022-09-10T05:31:44.520Z,3.60
2022-09-10T05:34:14.567Z,1.73
2022-09-10T05:36:44.037Z,1.60
2022-09-10T05:39:15.634Z,1.77
2022-09-10T05:41:44.995Z,1.83
2022-09-10T05:44:15.179Z,3.13
2022-09-10T05:46:44.739Z,1.90
2022-09-10T05:49:17.274Z,1.80
2022-09-10T05:51:46.613Z,1.97
2022-09-10T05:54:16.199Z,2.93
2022-09-10T05:56:45.452Z,2.87
2022-09-10T05:59:15.061Z,3.27
2022-09-10T06:01:51.451Z,2.00
2022-09-10T06:04:24.262Z,1.30
2022-09-10T06:06:53.254Z,1.43
2022-09-10T06:09:22.285Z,1.63
2022-09-10T06:12:07.429Z,2.03
2022-09-10T06:14:37.651Z,1.27
2022-09-10T06:17:06.473Z,1.50
2022-09-10T06:19:36.332Z,1.23
2022-09-10T06:22:05.793Z,0.83
2022-09-10T06:24:40.185Z,1.47
2022-09-10T06:27:09.714Z,1.60
2022-09-10T06:29:38.423Z,1.47
2022-09-10T06:32:09.635Z,1.93
2022-09-10T06:34:39.914Z,1.30
2022-09-10T06:37:09.566Z,1.60
2022-09-10T06:39:39.864Z,1.93
2022-09-10T06:42:09.256Z,2.13
2022-09-10T06:44:57.540Z,1.13
2022-09-10T06:48:37.033Z,0.90
2022-09-10T06:50:56.615Z,1.17
2022-09-10T06:53:33.520Z,2.40
2022-09-10T06:56:05.610Z,1.30
2022-09-10T06:58:36.509Z,1.40
2022-09-10T07:01:13.183Z,1.20
2022-09-10T07:03:44.033Z,2.10
2022-09-10T07:06:19.616Z,1.13
2022-09-10T07:08:56.851Z,3.23
2022-09-10T07:11:28.107Z,1.70
2022-09-10T07:14:01.477Z,1.73
2022-09-10T07:16:32.952Z,3.03
2022-09-10T07:19:02.326Z,1.40
2022-09-10T07:21:40.777Z,1.27
2022-09-10T07:24:14.502Z,1.40
2022-09-10T07:27:18.316Z,2.07
2022-09-10T07:29:48.018Z,1.63
2022-09-10T07:32:20.566Z,2.57
2022-09-10T07:34:52.635Z,1.23
2022-09-10T07:37:25.491Z,2.53
2022-09-10T07:39:54.211Z,1.90
2022-09-10T07:42:23.224Z,3.03
2022-09-10T07:44:53.231Z,1.40
2022-09-10T07:47:22.090Z,1.53
2022-09-10T07:49:52.620Z,3.03
2022-09-10T07:52:21.112Z,1.73
2022-09-10T07:54:56.132Z,1.50
2022-09-10T07:57:25.185Z,1.27
2022-09-10T07:59:55.010Z,0.90
2022-09-10T08:02:25.826Z,0.73
2022-09-10T08:05:00.060Z,1.07
2022-09-10T08:07:28.808Z,0.90
2022-09-10T08:09:58.729Z,1.20
2022-09-10T08:12:27.440Z,1.33
2022-09-10T08:14:57.845Z,1.30
2022-09-10T08:17:29.715Z,0.80
2022-09-10T08:19:58.948Z,0.73
2022-09-10T08:22:28.127Z,1.00
2022-09-10T08:25:00.148Z,2.30
2022-09-10T08:27:34.451Z,0.80
2022-09-10T08:30:07.110Z,1.20
2022-09-10T08:32:36.822Z,1.07
2022-09-10T08:35:07.299Z,1.33
2022-09-10T08:37:35.861Z,1.67
2022-09-10T08:40:08.180Z,1.23
2022-09-10T08:42:43.097Z,0.90
2022-09-10T08:45:17.730Z,1.27
2022-09-10T08:47:55.705Z,1.07
2022-09-10T08:50:37.327Z,1.10
2022-09-10T08:53:25.857Z,1.67
2022-09-10T08:56:03.269Z,2.23
2022-09-10T08:58:42.539Z,1.00
2022-09-10T09:01:16.907Z,1.87
2022-09-10T09:03:48.981Z,1.63
2022-09-10T09:06:31.390Z,1.40
2022-09-10T09:09:01.522Z,1.30
2022-09-10T09:11:47.738Z,1.30
2022-09-10T09:14:54.140Z,1.20
2022-09-10T09:17:42.837Z,1.30
2022-09-10T09:20:19.340Z,1.87
2022-09-10T09:22:55.301Z,1.40
2022-09-10T09:25:49.129Z,0.90
2022-09-10T09:28:31.729Z,1.33
2022-09-10T09:31:09.450Z,1.13
2022-09-10T09:33:40.296Z,1.90
2022-09-10T09:36:18.842Z,1.83
2022-09-10T09:38:50.916Z,1.57
2022-09-10T09:41:28.947Z,1.50
2022-09-10T09:44:04.245Z,1.73
2022-09-10T09:46:34.777Z,1.40
2022-09-10T09:49:07.199Z,1.53
2022-09-10T09:51:37.884Z,1.60
2022-09-10T09:54:46.494Z,3.00
2022-09-10T09:57:02.919Z,2.13
2022-09-10T09:59:35.683Z,1.80
2022-09-10T10:02:12.416Z,1.83
2022-09-10T10:04:55.251Z,2.20
2022-09-10T10:07:31.554Z,1.53
2022-09-10T10:10:02.378Z,1.73
2022-09-10T10:12:32.964Z,1.37
2022-09-10T10:15:03.856Z,1.50
2022-09-10T10:17:39.437Z,1.73
2022-09-10T10:20:14.860Z,2.03
2022-09-10T10:22:45.359Z,1.70
2022-09-10T10:25:38.457Z,2.63
2022-09-10T10:28:16.866Z,1.50
2022-09-10T10:30:54.445Z,1.10
2022-09-10T10:33:30.515Z,1.50
2022-09-10T10:36:08.942Z,1.53
2022-09-10T10:38:40.843Z,1.63
2022-09-10T10:41:52.082Z,1.37
2022-09-10T10:44:44.153Z,1.50
2022-09-10T10:47:33.215Z,1.40
2022-09-10T10:50:19.809Z,1.47
2022-09-10T10:53:04.915Z,1.50
2022-09-10T10:55:41.683Z,2.03
2022-09-10T10:58:33.489Z,1.50
2022-09-10T11:01:08.796Z,1.60
2022-09-10T11:03:44.861Z,1.50
2022-09-10T11:06:28.937Z,1.67
2022-09-10T11:09:03.003Z,2.17
2022-09-10T11:11:40.442Z,2.90
2022-09-10T11:14:27.009Z,1.53
2022-09-10T11:16:59.718Z,1.67
2022-09-10T11:19:36.953Z,1.00
2022-09-10T11:22:14.826Z,1.07
2022-09-10T11:24:51.196Z,1.50
2022-09-10T11:27:26.426Z,1.00
2022-09-10T11:30:03.749Z,1.00
2022-09-10T11:32:38.317Z,1.00
2022-09-10T11:35:20.162Z,1.10
2022-09-10T11:38:04.669Z,1.03
2022-09-10T11:40:40.242Z,1.17
2022-09-10T11:43:13.778Z,0.87
2022-09-10T11:45:49.301Z,2.00
2022-09-10T11:48:24.621Z,0.70
2022-09-10T11:51:01.640Z,0.83
2022-09-10T11:53:31.034Z,0.87
2022-09-10T11:56:47.593Z,1.00
2022-09-10T11:59:37.397Z,1.13
2022-09-10T12:02:33.760Z,0.80
2022-09-10T12:05:10.855Z,0.80
2022-09-10T12:07:51.571Z,0.60
2022-09-10T12:10:32.292Z,1.20
2022-09-10T12:13:01.065Z,1.10
2022-09-10T12:15:34.357Z,0.87
2022-09-10T12:18:10.339Z,1.10
2022-09-10T12:20:44.796Z,1.50
2022-09-10T12:23:21.034Z,1.80
2022-09-10T12:25:59.768Z,1.47
2022-09-10T12:28:59.781Z,1.70
2022-09-10T12:31:28.959Z,2.27
2022-09-10T12:34:19.585Z,1.80
2022-09-10T12:37:27.932Z,1.80
2022-09-10T12:40:45.907Z,1.90
2022-09-10T12:43:55.451Z,1.73
2022-09-10T12:46:25.747Z,3.13
2022-09-10T12:49:11.787Z,2.30
2022-09-10T12:51:56.716Z,2.37
2022-09-10T12:54:43.808Z,2.20
2022-09-10T12:57:30.459Z,2.30
2022-09-10T13:00:22.177Z,2.30
2022-09-10T13:02:55.049Z,2.67
2022-09-10T13:05:32.751Z,2.60
2022-09-10T13:08:14.793Z,4.30
2022-09-10T13:10:46.539Z,1.90
2022-09-10T13:13:36.033Z,2.97
2022-09-10T13:16:07.361Z,2.40
2022-09-10T13:18:37.681Z,2.43
2022-09-10T13:21:53.882Z,3.43
2022-09-10T13:24:40.242Z,2.70
2022-09-10T13:27:22.653Z,2.30
2022-09-10T13:30:11.401Z,2.53
2022-09-10T13:32:45.176Z,2.57
2022-09-10T13:35:56.036Z,2.63
2022-09-10T13:39:12.286Z,2.73
2022-09-10T13:42:11.243Z,2.80
2022-09-10T13:45:16.636Z,2.87
2022-09-10T13:47:50.520Z,2.63
2022-09-10T13:50:24.045Z,3.40
2022-09-10T13:52:57.341Z,2.57
2022-09-10T13:55:29.808Z,2.20
2022-09-10T13:58:02.640Z,2.37
2022-09-10T14:00:40.247Z,2.33
2022-09-10T14:03:17.174Z,2.00
2022-09-10T14:05:50.439Z,2.53
2022-09-10T14:08:24.101Z,2.00
2022-09-10T14:10:58.491Z,2.60
2022-09-10T14:13:34.624Z,2.53
2022-09-10T14:16:09.336Z,3.07
2022-09-10T14:18:45.618Z,2.10
2022-09-10T14:21:15.920Z,2.40
2022-09-10T14:23:46.697Z,2.20
2022-09-10T14:26:24.484Z,2.30
2022-09-10T14:28:56.969Z,2.87
2022-09-10T14:31:38.343Z,2.37
2022-09-10T14:34:32.148Z,2.50
2022-09-10T14:37:01.969Z,2.70
2022-09-10T14:39:30.737Z,2.63
2022-09-10T14:42:27.342Z,2.87
2022-09-10T14:44:56.353Z,2.60
2022-09-10T14:47:34.756Z,3.50
2022-09-10T14:50:30.915Z,3.00
2022-09-10T14:53:00.114Z,2.77
2022-09-10T14:55:32.153Z,2.40
2022-09-10T14:58:04.631Z,2.10
2022-09-10T15:00:33.713Z,2.37
2022-09-10T15:03:04.680Z,2.17
2022-09-10T15:05:33.752Z,2.40
2022-09-10T15:08:03.924Z,2.57
2022-09-10T15:10:32.953Z,2.63
2022-09-10T15:13:05.514Z,2.60
2022-09-10T15:15:52.259Z,2.90
2022-09-10T15:18:30.498Z,2.07
2022-09-10T15:21:04.981Z,2.27
2022-09-10T15:23:34.004Z,3.07
2022-09-10T15:26:06.176Z,2.77
2022-09-10T15:28:35.418Z,2.63
2022-09-10T15:31:04.514Z,2.50
2022-09-10T15:33:34.730Z,2.33
2022-09-10T15:36:04.400Z,2.07
2022-09-10T15:38:33.065Z,2.20
2022-09-10T15:41:12.515Z,2.77
2022-09-10T15:43:43.963Z,2.47
2022-09-10T15:46:14.060Z,3.03
2022-09-10T15:48:45.205Z,2.77
2022-09-10T15:51:24.274Z,2.63
2022-09-10T15:53:56.321Z,2.10
2022-09-10T15:56:28.594Z,2.33
2022-09-10T15:58:59.297Z,3.60
2022-09-10T16:01:29.268Z,2.33
2022-09-10T16:04:02.808Z,2.37
2022-09-10T16:06:36.231Z,2.10
2022-09-10T16:09:09.131Z,1.83
2022-09-10T16:11:40.776Z,1.87
2022-09-10T16:14:13.390Z,3.00
2022-09-10T16:16:42.545Z,1.77
2022-09-10T16:19:14.124Z,1.90
2022-09-10T16:21:43.467Z,2.40
2022-09-10T16:24:11.965Z,2.20
2022-09-10T16:26:43.589Z,2.20
2022-09-10T16:29:16.094Z,2.03
2022-09-10T16:31:45.481Z,1.80
2022-09-10T16:34:18.430Z,1.70
2022-09-10T16:36:48.914Z,1.90
2022-09-10T16:39:19.111Z,1.60
2022-09-10T16:41:50.072Z,1.70
2022-09-10T16:44:20.158Z,1.70
2022-09-10T16:46:49.583Z,1.90
2022-09-10T16:49:19.925Z,1.63
2022-09-10T16:51:50.194Z,1.90
2022-09-10T16:54:20.910Z,1.60
2022-09-10T16:56:50.941Z,1.70
2022-09-10T16:59:22.823Z,1.63
2022-09-10T17:01:53.151Z,2.00
2022-09-10T17:04:28.778Z,1.80
2022-09-10T17:06:59.032Z,1.87
2022-09-10T17:09:27.623Z,1.70
2022-09-10T17:11:56.567Z,1.90
2022-09-10T17:14:25.619Z,1.70
2022-09-10T17:16:54.289Z,1.63
2022-09-10T17:19:26.391Z,1.87
2022-09-10T17:21:57.149Z,1.97
2022-09-10T17:24:28.128Z,1.70
2022-09-10T17:26:57.648Z,2.67
2022-09-10T17:29:27.125Z,2.00
2022-09-10T17:31:57.413Z,1.67
2022-09-10T17:34:28.175Z,2.03
2022-09-10T17:36:57.283Z,2.00
2022-09-10T17:39:28.362Z,2.50
2022-09-10T17:41:57.271Z,2.13
2022-09-10T17:44:26.973Z,2.07
2022-09-10T17:46:56.302Z,2.13
2022-09-10T17:49:26.405Z,2.20
2022-09-10T17:51:55.251Z,1.80
2022-09-10T17:54:24.299Z,1.90
2022-09-10T17:56:52.785Z,2.13
2022-09-10T17:59:22.060Z,2.27
2022-09-10T18:01:50.631Z,2.40
2022-09-10T18:04:22.709Z,1.90
2022-09-10T18:06:53.778Z,2.13
2022-09-10T18:09:23.587Z,2.47
2022-09-10T18:11:52.523Z,2.43
2022-09-10T18:14:23.081Z,2.73
2022-09-10T18:16:52.232Z,2.87
2022-09-10T18:19:20.734Z,2.40
2022-09-10T18:21:51.051Z,2.77
2022-09-10T18:24:24.085Z,3.13
2022-09-10T18:26:54.897Z,2.67
2022-09-10T18:29:25.520Z,3.30
2022-09-10T18:31:56.794Z,3.60
2022-09-10T18:34:27.862Z,3.10
2022-09-10T18:36:58.857Z,3.17
2022-09-10T18:39:31.141Z,3.47
2022-09-10T18:42:00.889Z,3.03
2022-09-10T18:44:45.045Z,3.50
2022-09-10T18:47:34.020Z,3.47
2022-09-10T18:50:03.103Z,4.33
2022-09-10T18:52:31.857Z,4.13
2022-09-10T18:55:01.724Z,4.03
2022-09-10T18:57:31.715Z,4.40
2022-09-10T19:00:00.491Z,3.70
2022-09-10T19:02:29.260Z,3.30
2022-09-10T19:05:17.569Z,3.93
2022-09-10T19:07:46.664Z,3.83
2022-09-10T19:10:16.931Z,3.80
2022-09-10T19:12:45.564Z,3.10
2022-09-10T19:15:14.076Z,4.00
2022-09-10T19:17:42.559Z,3.83
2022-09-10T19:20:11.573Z,4.40
2022-09-10T19:22:40.159Z,4.20
2022-09-10T19:25:09.799Z,4.70
2022-09-10T19:27:39.665Z,4.50
2022-09-10T19:30:09.903Z,4.23
2022-09-10T19:32:38.354Z,4.57
2022-09-10T19:35:07.458Z,4.43
2022-09-10T19:37:35.953Z,4.60
2022-09-10T19:40:05.313Z,5.27
2022-09-10T19:42:33.950Z,4.70
2022-09-10T19:45:08.215Z,5.13
2022-09-10T19:47:38.746Z,4.50
2022-09-10T19:50:08.470Z,4.77
2022-09-10T19:52:37.211Z,4.83
2022-09-10T19:55:06.927Z,4.80
2022-09-10T19:57:35.695Z,5.30
2022-09-10T20:00:07.424Z,4.60
2022-09-10T20:02:40.164Z,4.47
2022-09-10T20:05:10.716Z,4.27
2022-09-10T20:07:39.816Z,4.50
2022-09-10T20:10:09.487Z,3.73
2022-09-10T20:12:38.101Z,4.60
2022-09-10T20:15:10.112Z,3.30
2022-09-10T20:17:38.786Z,4.27
2022-09-10T20:20:08.606Z,3.80
2022-09-10T20:22:38.814Z,4.43
2022-09-10T20:25:08.510Z,4.80
2022-09-10T20:27:37.852Z,4.80
2022-09-10T20:30:09.797Z,4.30
2022-09-10T20:32:38.806Z,4.57
2022-09-10T20:35:10.332Z,3.60
2022-09-10T20:37:39.150Z,4.87
2022-09-10T20:40:09.499Z,4.50
2022-09-10T20:42:39.627Z,4.93
2022-09-10T20:45:11.247Z,4.60
2022-09-10T20:47:43.873Z,4.40
2022-09-10T20:50:13.326Z,4.80
2022-09-10T20:52:44.347Z,4.50
2022-09-10T20:55:12.957Z,4.50
2022-09-10T20:57:41.622Z,4.77
2022-09-10T21:00:14.541Z,4.90
2022-09-10T21:02:44.927Z,3.97
2022-09-10T21:05:14.856Z,4.20
2022-09-10T21:07:43.532Z,5.47
2022-09-10T21:10:12.238Z,4.10
2022-09-10T21:12:41.329Z,3.53
2022-09-10T21:15:15.602Z,4.30
2022-09-10T21:17:45.137Z,4.50
2022-09-10T21:20:14.531Z,3.93
2022-09-10T21:22:43.313Z,4.43
2022-09-10T21:25:13.235Z,4.93
2022-09-10T21:27:42.383Z,4.73
2022-09-10T21:30:14.360Z,6.00
2022-09-10T21:32:43.751Z,6.30
2022-09-10T21:35:12.991Z,5.77
2022-09-10T21:37:43.075Z,5.40
2022-09-10T21:40:14.221Z,5.60
2022-09-10T21:42:43.266Z,6.17
2022-09-10T21:45:13.495Z,5.87
2022-09-10T21:47:43.607Z,5.97
2022-09-10T21:50:13.102Z,5.50
2022-09-10T21:52:41.980Z,5.50
2022-09-10T21:55:11.270Z,5.73
2022-09-10T21:57:40.438Z,5.93
2022-09-10T22:00:14.756Z,5.73
2022-09-10T22:02:45.395Z,5.90
2022-09-10T22:05:14.341Z,5.33
2022-09-10T22:07:42.831Z,5.73
2022-09-10T22:10:11.647Z,5.77
2022-09-10T22:12:40.289Z,5.73
2022-09-10T22:15:10.656Z,5.43
2022-09-10T22:17:39.359Z,5.00
2022-09-10T22:20:10.683Z,5.63
2022-09-10T22:22:39.418Z,5.10
2022-09-10T22:25:08.933Z,5.63
2022-09-10T22:27:38.526Z,5.00
2022-09-10T22:30:08.435Z,4.90
2022-09-10T22:32:37.028Z,5.50
2022-09-10T22:35:06.341Z,5.03
2022-09-10T22:37:37.207Z,5.13
2022-09-10T22:40:06.534Z,4.63
2022-09-10T22:42:35.085Z,5.40
2022-09-10T22:45:03.568Z,4.57
2022-09-10T22:47:32.262Z,4.20
2022-09-10T22:50:00.978Z,4.70
2022-09-10T22:52:32.881Z,4.50
2022-09-10T22:55:03.275Z,4.37
2022-09-10T22:57:31.811Z,4.50
2022-09-10T23:00:00.314Z,4.60
2022-09-10T23:02:29.150Z,5.17
2022-09-10T23:04:57.811Z,5.20
2022-09-10T23:07:26.314Z,4.83
2022-09-10T23:09:55.689Z,5.00
2022-09-10T23:12:25.632Z,4.23
2022-09-10T23:14:54.437Z,5.13
2022-09-10T23:17:22.927Z,4.80
2022-09-10T23:19:51.367Z,4.10
2022-09-10T23:22:19.934Z,4.17
2022-09-10T23:24:48.414Z,4.90
2022-09-10T23:27:17.002Z,4.90
2022-09-10T23:29:47.656Z,4.67
2022-09-10T23:32:16.484Z,4.50
2022-09-10T23:34:45.316Z,4.60
2022-09-10T23:37:13.760Z,5.10
2022-09-10T23:39:42.263Z,5.03
2022-09-10T23:42:11.061Z,5.30
2022-09-10T23:44:39.548Z,5.07
2022-09-10T23:47:09.411Z,5.20
2022-09-10T23:49:38.030Z,5.10
2022-09-10T23:52:07.221Z,5.13
2022-09-10T23:54:35.702Z,5.03
2022-09-10T23:57:04.175Z,4.50
2022-09-10T23:59:32.850Z,5.17
